sensor_id;sensor_type;location;lat;lon;timestamp;P1;durP1;ratioP1;P2;durP2;ratioP2
50417;SDS011;36346;48.280;14.292;2023-07-31T00:00:32;2.72;;;2.72;;
50417;SDS011;36346;48.280;14.292;2023-07-31T00:03:03;2.68;;;2.68;;
50417;SDS011;36346;48.280;14.292;2023-07-31T00:05:33;2.45;;;2.45;;
50417;SDS011;36346;48.280;14.292;2023-07-31T00:08:03;2.60;;;2.60;;
50417;SDS011;36346;48.280;14.292;2023-07-31T00:10:32;2.69;;;2.69;;
50417;SDS011;36346;48.280;14.292;2023-07-31T00:13:01;2.71;;;2.71;;
50417;SDS011;36346;48.280;14.292;2023-07-31T00:15:29;2.46;;;2.46;;
50417;SDS011;36346;48.280;14.292;2023-07-31T00:17:57;2.62;;;2.62;;
50417;SDS011;36346;48.280;14.292;2023-07-31T00:20:25;2.34;;;2.34;;
50417;SDS011;36346;48.280;14.292;2023-07-31T00:22:54;2.48;;;2.48;;
50417;SDS011;36346;48.280;14.292;2023-07-31T00:25:22;2.47;;;2.47;;
50417;SDS011;36346;48.280;14.292;2023-07-31T00:27:52;2.52;;;2.52;;
50417;SDS011;36346;48.280;14.292;2023-07-31T00:30:22;2.57;;;2.57;;
50417;SDS011;36346;48.280;14.292;2023-07-31T00:32:50;2.64;;;2.64;;
50417;SDS011;36346;48.280;14.292;2023-07-31T00:35:18;2.73;;;2.73;;
50417;SDS011;36346;48.280;14.292;2023-07-31T00:37:46;2.86;;;2.86;;
50417;SDS011;36346;48.280;14.292;2023-07-31T00:40:16;2.57;;;2.57;;
50417;SDS011;36346;48.280;14.292;2023-07-31T00:42:48;2.63;;;2.63;;
50417;SDS011;36346;48.280;14.292;2023-07-31T00:45:17;3.00;;;3.00;;
50417;SDS011;36346;48.280;14.292;2023-07-31T00:47:45;2.54;;;2.54;;
50417;SDS011;36346;48.280;14.292;2023-07-31T00:50:14;2.81;;;2.81;;
50417;SDS011;36346;48.280;14.292;2023-07-31T00:52:42;2.68;;;2.68;;
50417;SDS011;36346;48.280;14.292;2023-07-31T00:55:10;2.75;;;2.75;;
50417;SDS011;36346;48.280;14.292;2023-07-31T00:57:39;3.94;;;3.94;;
50417;SDS011;36346;48.280;14.292;2023-07-31T01:00:09;2.77;;;2.77;;
50417;SDS011;36346;48.280;14.292;2023-07-31T01:02:40;2.60;;;2.60;;
50417;SDS011;36346;48.280;14.292;2023-07-31T01:05:08;2.50;;;2.50;;
50417;SDS011;36346;48.280;14.292;2023-07-31T01:08:00;2.65;;;2.65;;
50417;SDS011;36346;48.280;14.292;2023-07-31T01:10:44;2.57;;;2.57;;
50417;SDS011;36346;48.280;14.292;2023-07-31T01:13:19;2.35;;;2.35;;
50417;SDS011;36346;48.280;14.292;2023-07-31T01:15:49;2.58;;;2.58;;
50417;SDS011;36346;48.280;14.292;2023-07-31T01:18:17;2.68;;;2.68;;
50417;SDS011;36346;48.280;14.292;2023-07-31T01:20:51;2.71;;;2.71;;
50417;SDS011;36346;48.280;14.292;2023-07-31T01:26:24;2.79;;;2.79;;
50417;SDS011;36346;48.280;14.292;2023-07-31T01:29:01;2.53;;;2.53;;
50417;SDS011;36346;48.280;14.292;2023-07-31T01:31:33;2.62;;;2.62;;
50417;SDS011;36346;48.280;14.292;2023-07-31T01:34:04;2.91;;;2.91;;
50417;SDS011;36346;48.280;14.292;2023-07-31T01:36:34;2.25;;;2.25;;
50417;SDS011;36346;48.280;14.292;2023-07-31T01:39:02;2.45;;;2.45;;
50417;SDS011;36346;48.280;14.292;2023-07-31T01:41:32;2.24;;;2.24;;
50417;SDS011;36346;48.280;14.292;2023-07-31T01:44:03;2.44;;;2.44;;
50417;SDS011;36346;48.280;14.292;2023-07-31T01:46:32;2.24;;;2.24;;
50417;SDS011;36346;48.280;14.292;2023-07-31T01:49:01;2.44;;;2.44;;
50417;SDS011;36346;48.280;14.292;2023-07-31T01:51:28;2.79;;;2.79;;
50417;SDS011;36346;48.280;14.292;2023-07-31T01:53:58;2.68;;;2.68;;
50417;SDS011;36346;48.280;14.292;2023-07-31T01:56:29;2.44;;;2.44;;
50417;SDS011;36346;48.280;14.292;2023-07-31T01:58:57;2.37;;;2.37;;
50417;SDS011;36346;48.280;14.292;2023-07-31T02:01:25;2.52;;;2.52;;
50417;SDS011;36346;48.280;14.292;2023-07-31T02:03:55;2.91;;;2.91;;
50417;SDS011;36346;48.280;14.292;2023-07-31T02:06:23;2.46;;;2.46;;
50417;SDS011;36346;48.280;14.292;2023-07-31T02:08:55;2.77;;;2.77;;
50417;SDS011;36346;48.280;14.292;2023-07-31T02:11:25;2.85;;;2.85;;
50417;SDS011;36346;48.280;14.292;2023-07-31T02:13:52;2.64;;;2.64;;
50417;SDS011;36346;48.280;14.292;2023-07-31T02:16:22;2.67;;;2.67;;
50417;SDS011;36346;48.280;14.292;2023-07-31T02:18:50;2.74;;;2.74;;
50417;SDS011;36346;48.280;14.292;2023-07-31T02:21:18;2.81;;;2.81;;
50417;SDS011;36346;48.280;14.292;2023-07-31T02:23:49;2.87;;;2.87;;
50417;SDS011;36346;48.280;14.292;2023-07-31T02:26:17;2.74;;;2.74;;
50417;SDS011;36346;48.280;14.292;2023-07-31T02:28:45;2.67;;;2.67;;
50417;SDS011;36346;48.280;14.292;2023-07-31T02:31:14;2.80;;;2.80;;
50417;SDS011;36346;48.280;14.292;2023-07-31T02:33:42;3.00;;;3.00;;
50417;SDS011;36346;48.280;14.292;2023-07-31T02:36:10;3.02;;;3.02;;
50417;SDS011;36346;48.280;14.292;2023-07-31T02:38:40;3.29;;;3.29;;
50417;SDS011;36346;48.280;14.292;2023-07-31T02:41:08;3.02;;;3.02;;
50417;SDS011;36346;48.280;14.292;2023-07-31T02:43:37;2.87;;;2.87;;
50417;SDS011;36346;48.280;14.292;2023-07-31T02:46:07;2.80;;;2.80;;
50417;SDS011;36346;48.280;14.292;2023-07-31T02:48:35;2.82;;;2.82;;
50417;SDS011;36346;48.280;14.292;2023-07-31T02:51:03;2.65;;;2.65;;
50417;SDS011;36346;48.280;14.292;2023-07-31T02:53:31;2.88;;;2.88;;
50417;SDS011;36346;48.280;14.292;2023-07-31T02:55:59;2.92;;;2.92;;
50417;SDS011;36346;48.280;14.292;2023-07-31T02:58:28;2.82;;;2.82;;
50417;SDS011;36346;48.280;14.292;2023-07-31T03:00:58;2.84;;;2.84;;
50417;SDS011;36346;48.280;14.292;2023-07-31T03:03:26;2.94;;;2.94;;
50417;SDS011;36346;48.280;14.292;2023-07-31T03:05:55;2.76;;;2.76;;
50417;SDS011;36346;48.280;14.292;2023-07-31T03:08:25;2.78;;;2.78;;
50417;SDS011;36346;48.280;14.292;2023-07-31T03:10:53;2.87;;;2.87;;
50417;SDS011;36346;48.280;14.292;2023-07-31T03:13:22;2.84;;;2.84;;
50417;SDS011;36346;48.280;14.292;2023-07-31T03:15:50;3.02;;;3.02;;
50417;SDS011;36346;48.280;14.292;2023-07-31T03:18:20;3.13;;;3.13;;
50417;SDS011;36346;48.280;14.292;2023-07-31T03:20:51;3.15;;;3.15;;
50417;SDS011;36346;48.280;14.292;2023-07-31T03:23:19;2.63;;;2.63;;
50417;SDS011;36346;48.280;14.292;2023-07-31T03:25:55;2.67;;;2.67;;
50417;SDS011;36346;48.280;14.292;2023-07-31T03:28:30;2.74;;;2.74;;
50417;SDS011;36346;48.280;14.292;2023-07-31T03:30:58;2.84;;;2.84;;
50417;SDS011;36346;48.280;14.292;2023-07-31T03:33:26;2.68;;;2.68;;
50417;SDS011;36346;48.280;14.292;2023-07-31T03:35:54;2.56;;;2.56;;
50417;SDS011;36346;48.280;14.292;2023-07-31T03:38:22;2.65;;;2.65;;
50417;SDS011;36346;48.280;14.292;2023-07-31T03:40:53;2.96;;;2.96;;
50417;SDS011;36346;48.280;14.292;2023-07-31T03:43:25;2.73;;;2.73;;
50417;SDS011;36346;48.280;14.292;2023-07-31T03:45:53;2.68;;;2.68;;
50417;SDS011;36346;48.280;14.292;2023-07-31T03:48:21;2.58;;;2.58;;
50417;SDS011;36346;48.280;14.292;2023-07-31T03:50:50;2.67;;;2.67;;
50417;SDS011;36346;48.280;14.292;2023-07-31T03:53:20;2.93;;;2.93;;
50417;SDS011;36346;48.280;14.292;2023-07-31T03:55:58;3.34;;;3.34;;
50417;SDS011;36346;48.280;14.292;2023-07-31T03:58:26;3.46;;;3.46;;
50417;SDS011;36346;48.280;14.292;2023-07-31T04:00:54;3.24;;;3.24;;
50417;SDS011;36346;48.280;14.292;2023-07-31T04:03:22;3.21;;;3.21;;
50417;SDS011;36346;48.280;14.292;2023-07-31T04:05:53;3.49;;;3.49;;
50417;SDS011;36346;48.280;14.292;2023-07-31T04:08:25;3.66;;;3.66;;
50417;SDS011;36346;48.280;14.292;2023-07-31T04:10:53;3.66;;;3.66;;
50417;SDS011;36346;48.280;14.292;2023-07-31T04:13:25;3.78;;;3.78;;
50417;SDS011;36346;48.280;14.292;2023-07-31T04:15:55;3.49;;;3.49;;
50417;SDS011;36346;48.280;14.292;2023-07-31T04:18:24;3.38;;;3.38;;
50417;SDS011;36346;48.280;14.292;2023-07-31T04:20:53;3.80;;;3.80;;
50417;SDS011;36346;48.280;14.292;2023-07-31T04:23:22;3.40;;;3.40;;
50417;SDS011;36346;48.280;14.292;2023-07-31T04:25:51;3.57;;;3.57;;
50417;SDS011;36346;48.280;14.292;2023-07-31T04:28:19;3.74;;;3.74;;
50417;SDS011;36346;48.280;14.292;2023-07-31T04:30:48;4.25;;;4.25;;
50417;SDS011;36346;48.280;14.292;2023-07-31T04:33:18;4.03;;;4.03;;
50417;SDS011;36346;48.280;14.292;2023-07-31T04:35:53;3.78;;;3.78;;
50417;SDS011;36346;48.280;14.292;2023-07-31T04:38:21;3.68;;;3.68;;
50417;SDS011;36346;48.280;14.292;2023-07-31T04:40:50;3.40;;;3.40;;
50417;SDS011;36346;48.280;14.292;2023-07-31T04:43:18;3.56;;;3.56;;
50417;SDS011;36346;48.280;14.292;2023-07-31T04:45:47;3.36;;;3.36;;
50417;SDS011;36346;48.280;14.292;2023-07-31T04:48:17;3.56;;;3.56;;
50417;SDS011;36346;48.280;14.292;2023-07-31T04:50:45;3.54;;;3.54;;
50417;SDS011;36346;48.280;14.292;2023-07-31T04:53:14;3.60;;;3.60;;
50417;SDS011;36346;48.280;14.292;2023-07-31T04:55:42;3.37;;;3.37;;
50417;SDS011;36346;48.280;14.292;2023-07-31T04:58:12;3.50;;;3.50;;
50417;SDS011;36346;48.280;14.292;2023-07-31T05:00:41;3.64;;;3.64;;
50417;SDS011;36346;48.280;14.292;2023-07-31T05:03:09;3.46;;;3.46;;
50417;SDS011;36346;48.280;14.292;2023-07-31T05:05:38;3.64;;;3.64;;
50417;SDS011;36346;48.280;14.292;2023-07-31T05:08:07;3.36;;;3.36;;
50417;SDS011;36346;48.280;14.292;2023-07-31T05:10:36;3.45;;;3.45;;
50417;SDS011;36346;48.280;14.292;2023-07-31T05:13:05;3.70;;;3.70;;
50417;SDS011;36346;48.280;14.292;2023-07-31T05:15:33;3.68;;;3.68;;
50417;SDS011;36346;48.280;14.292;2023-07-31T05:18:01;3.60;;;3.60;;
50417;SDS011;36346;48.280;14.292;2023-07-31T05:20:29;3.77;;;3.77;;
50417;SDS011;36346;48.280;14.292;2023-07-31T05:22:57;3.81;;;3.81;;
50417;SDS011;36346;48.280;14.292;2023-07-31T05:25:25;3.63;;;3.63;;
50417;SDS011;36346;48.280;14.292;2023-07-31T05:27:53;3.80;;;3.80;;
50417;SDS011;36346;48.280;14.292;2023-07-31T05:30:21;3.91;;;3.91;;
50417;SDS011;36346;48.280;14.292;2023-07-31T05:32:49;3.70;;;3.70;;
50417;SDS011;36346;48.280;14.292;2023-07-31T05:35:17;3.86;;;3.86;;
50417;SDS011;36346;48.280;14.292;2023-07-31T05:37:45;3.64;;;3.64;;
50417;SDS011;36346;48.280;14.292;2023-07-31T05:40:14;3.71;;;3.71;;
50417;SDS011;36346;48.280;14.292;2023-07-31T05:42:42;3.56;;;3.56;;
50417;SDS011;36346;48.280;14.292;2023-07-31T05:45:10;3.51;;;3.51;;
50417;SDS011;36346;48.280;14.292;2023-07-31T05:47:38;3.28;;;3.28;;
50417;SDS011;36346;48.280;14.292;2023-07-31T05:50:07;3.41;;;3.41;;
50417;SDS011;36346;48.280;14.292;2023-07-31T05:52:35;3.38;;;3.38;;
50417;SDS011;36346;48.280;14.292;2023-07-31T05:55:03;3.43;;;3.43;;
50417;SDS011;36346;48.280;14.292;2023-07-31T05:57:32;3.32;;;3.32;;
50417;SDS011;36346;48.280;14.292;2023-07-31T06:00:01;3.23;;;3.23;;
50417;SDS011;36346;48.280;14.292;2023-07-31T06:02:32;3.26;;;3.26;;
50417;SDS011;36346;48.280;14.292;2023-07-31T06:05:04;3.08;;;3.08;;
50417;SDS011;36346;48.280;14.292;2023-07-31T06:07:34;3.11;;;3.11;;
50417;SDS011;36346;48.280;14.292;2023-07-31T06:10:02;3.08;;;3.08;;
50417;SDS011;36346;48.280;14.292;2023-07-31T06:12:33;3.64;;;3.64;;
50417;SDS011;36346;48.280;14.292;2023-07-31T06:15:02;4.55;;;4.54;;
50417;SDS011;36346;48.280;14.292;2023-07-31T06:17:31;3.43;;;3.43;;
50417;SDS011;36346;48.280;14.292;2023-07-31T06:19:59;3.01;;;3.00;;
50417;SDS011;36346;48.280;14.292;2023-07-31T06:22:27;2.83;;;2.83;;
50417;SDS011;36346;48.280;14.292;2023-07-31T06:24:57;3.12;;;3.12;;
50417;SDS011;36346;48.280;14.292;2023-07-31T06:27:25;2.65;;;2.65;;
50417;SDS011;36346;48.280;14.292;2023-07-31T06:29:53;2.65;;;2.65;;
50417;SDS011;36346;48.280;14.292;2023-07-31T06:32:21;3.09;;;3.08;;
50417;SDS011;36346;48.280;14.292;2023-07-31T06:34:52;3.08;;;3.08;;
50417;SDS011;36346;48.280;14.292;2023-07-31T06:37:20;2.58;;;2.58;;
50417;SDS011;36346;48.280;14.292;2023-07-31T06:39:48;3.07;;;3.07;;
50417;SDS011;36346;48.280;14.292;2023-07-31T06:42:17;2.58;;;2.58;;
50417;SDS011;36346;48.280;14.292;2023-07-31T06:44:45;2.77;;;2.77;;
50417;SDS011;36346;48.280;14.292;2023-07-31T06:47:13;3.29;;;3.29;;
50417;SDS011;36346;48.280;14.292;2023-07-31T06:49:44;3.28;;;3.28;;
50417;SDS011;36346;48.280;14.292;2023-07-31T06:52:12;3.00;;;3.00;;
50417;SDS011;36346;48.280;14.292;2023-07-31T06:54:40;4.12;;;4.12;;
50417;SDS011;36346;48.280;14.292;2023-07-31T06:57:08;3.16;;;3.16;;
50417;SDS011;36346;48.280;14.292;2023-07-31T06:59:36;2.49;;;2.49;;
50417;SDS011;36346;48.280;14.292;2023-07-31T07:02:07;2.75;;;2.75;;
50417;SDS011;36346;48.280;14.292;2023-07-31T07:04:35;2.83;;;2.83;;
50417;SDS011;36346;48.280;14.292;2023-07-31T07:07:03;2.46;;;2.45;;
50417;SDS011;36346;48.280;14.292;2023-07-31T07:09:31;3.16;;;3.15;;
50417;SDS011;36346;48.280;14.292;2023-07-31T07:11:59;3.08;;;3.07;;
50417;SDS011;36346;48.280;14.292;2023-07-31T07:14:27;3.56;;;3.56;;
50417;SDS011;36346;48.280;14.292;2023-07-31T07:16:55;3.73;;;3.73;;
50417;SDS011;36346;48.280;14.292;2023-07-31T07:19:24;4.49;;;4.48;;
50417;SDS011;36346;48.280;14.292;2023-07-31T07:21:52;2.76;;;2.74;;
50417;SDS011;36346;48.280;14.292;2023-07-31T07:24:21;2.31;;;2.30;;
50417;SDS011;36346;48.280;14.292;2023-07-31T07:26:49;2.19;;;2.18;;
50417;SDS011;36346;48.280;14.292;2023-07-31T07:29:19;2.12;;;2.12;;
50417;SDS011;36346;48.280;14.292;2023-07-31T07:31:48;2.27;;;2.27;;
50417;SDS011;36346;48.280;14.292;2023-07-31T07:34:17;2.23;;;2.23;;
50417;SDS011;36346;48.280;14.292;2023-07-31T07:36:45;2.45;;;2.44;;
50417;SDS011;36346;48.280;14.292;2023-07-31T07:39:13;2.84;;;2.84;;
50417;SDS011;36346;48.280;14.292;2023-07-31T07:41:42;2.86;;;2.86;;
50417;SDS011;36346;48.280;14.292;2023-07-31T07:44:10;2.23;;;2.23;;
50417;SDS011;36346;48.280;14.292;2023-07-31T07:46:38;2.57;;;2.57;;
50417;SDS011;36346;48.280;14.292;2023-07-31T07:49:07;2.95;;;2.95;;
50417;SDS011;36346;48.280;14.292;2023-07-31T07:51:35;2.92;;;2.92;;
50417;SDS011;36346;48.280;14.292;2023-07-31T07:54:03;2.51;;;2.51;;
50417;SDS011;36346;48.280;14.292;2023-07-31T07:56:32;2.04;;;2.04;;
50417;SDS011;36346;48.280;14.292;2023-07-31T07:59:01;1.91;;;1.90;;
50417;SDS011;36346;48.280;14.292;2023-07-31T08:01:28;1.85;;;1.83;;
50417;SDS011;36346;48.280;14.292;2023-07-31T08:03:57;2.10;;;2.08;;
50417;SDS011;36346;48.280;14.292;2023-07-31T08:06:26;1.97;;;1.96;;
50417;SDS011;36346;48.280;14.292;2023-07-31T08:08:54;1.93;;;1.90;;
50417;SDS011;36346;48.280;14.292;2023-07-31T08:11:22;2.05;;;2.03;;
50417;SDS011;36346;48.280;14.292;2023-07-31T08:13:51;2.01;;;1.99;;
50417;SDS011;36346;48.280;14.292;2023-07-31T08:16:19;2.05;;;2.02;;
50417;SDS011;36346;48.280;14.292;2023-07-31T08:18:47;2.25;;;2.21;;
50417;SDS011;36346;48.280;14.292;2023-07-31T08:21:18;2.81;;;2.76;;
50417;SDS011;36346;48.280;14.292;2023-07-31T08:23:45;2.56;;;2.54;;
50417;SDS011;36346;48.280;14.292;2023-07-31T08:26:17;2.17;;;2.15;;
50417;SDS011;36346;48.280;14.292;2023-07-31T08:28:46;1.99;;;1.98;;
50417;SDS011;36346;48.280;14.292;2023-07-31T08:31:14;1.98;;;1.98;;
50417;SDS011;36346;48.280;14.292;2023-07-31T08:33:42;2.11;;;2.09;;
50417;SDS011;36346;48.280;14.292;2023-07-31T08:36:10;2.29;;;2.29;;
50417;SDS011;36346;48.280;14.292;2023-07-31T08:38:38;3.14;;;3.14;;
50417;SDS011;36346;48.280;14.292;2023-07-31T08:41:06;1.94;;;1.94;;
50417;SDS011;36346;48.280;14.292;2023-07-31T08:43:34;2.15;;;2.15;;
50417;SDS011;36346;48.280;14.292;2023-07-31T08:46:03;1.99;;;1.99;;
50417;SDS011;36346;48.280;14.292;2023-07-31T08:48:31;2.02;;;2.02;;
50417;SDS011;36346;48.280;14.292;2023-07-31T08:50:59;2.23;;;2.23;;
50417;SDS011;36346;48.280;14.292;2023-07-31T08:53:27;2.18;;;2.18;;
50417;SDS011;36346;48.280;14.292;2023-07-31T08:55:56;2.04;;;2.04;;
50417;SDS011;36346;48.280;14.292;2023-07-31T08:58:24;1.85;;;1.85;;
50417;SDS011;36346;48.280;14.292;2023-07-31T09:00:53;2.33;;;2.32;;
50417;SDS011;36346;48.280;14.292;2023-07-31T09:03:23;2.65;;;2.65;;
50417;SDS011;36346;48.280;14.292;2023-07-31T09:05:53;2.58;;;2.58;;
50417;SDS011;36346;48.280;14.292;2023-07-31T09:08:23;2.61;;;2.61;;
50417;SDS011;36346;48.280;14.292;2023-07-31T09:10:55;2.52;;;2.52;;
50417;SDS011;36346;48.280;14.292;2023-07-31T09:13:28;1.85;;;1.84;;
50417;SDS011;36346;48.280;14.292;2023-07-31T09:15:57;2.44;;;2.44;;
50417;SDS011;36346;48.280;14.292;2023-07-31T09:18:25;2.70;;;2.70;;
50417;SDS011;36346;48.280;14.292;2023-07-31T09:21:04;2.57;;;2.57;;
50417;SDS011;36346;48.280;14.292;2023-07-31T09:23:46;2.07;;;2.07;;
50417;SDS011;36346;48.280;14.292;2023-07-31T09:28:58;1.99;;;1.99;;
50417;SDS011;36346;48.280;14.292;2023-07-31T09:34:11;2.14;;;2.14;;
50417;SDS011;36346;48.280;14.292;2023-07-31T09:39:21;2.27;;;2.26;;
50417;SDS011;36346;48.280;14.292;2023-07-31T09:41:55;1.84;;;1.83;;
50417;SDS011;36346;48.280;14.292;2023-07-31T09:44:37;2.06;;;2.06;;
50417;SDS011;36346;48.280;14.292;2023-07-31T09:47:20;1.96;;;1.96;;
50417;SDS011;36346;48.280;14.292;2023-07-31T09:49:52;1.95;;;1.95;;
50417;SDS011;36346;48.280;14.292;2023-07-31T09:52:20;1.85;;;1.85;;
50417;SDS011;36346;48.280;14.292;2023-07-31T09:54:49;2.11;;;2.08;;
50417;SDS011;36346;48.280;14.292;2023-07-31T09:57:17;2.06;;;2.02;;
50417;SDS011;36346;48.280;14.292;2023-07-31T09:59:49;1.98;;;1.97;;
50417;SDS011;36346;48.280;14.292;2023-07-31T10:02:20;2.02;;;2.02;;
50417;SDS011;36346;48.280;14.292;2023-07-31T10:04:50;2.00;;;2.00;;
50417;SDS011;36346;48.280;14.292;2023-07-31T10:07:20;1.83;;;1.82;;
50417;SDS011;36346;48.280;14.292;2023-07-31T10:09:51;1.89;;;1.89;;
50417;SDS011;36346;48.280;14.292;2023-07-31T10:12:25;1.93;;;1.93;;
50417;SDS011;36346;48.280;14.292;2023-07-31T10:14:58;1.95;;;1.95;;
50417;SDS011;36346;48.280;14.292;2023-07-31T10:17:27;1.82;;;1.82;;
50417;SDS011;36346;48.280;14.292;2023-07-31T10:19:57;1.92;;;1.91;;
50417;SDS011;36346;48.280;14.292;2023-07-31T10:22:32;2.01;;;2.01;;
50417;SDS011;36346;48.280;14.292;2023-07-31T10:25:01;2.21;;;2.21;;
50417;SDS011;36346;48.280;14.292;2023-07-31T10:27:29;2.03;;;2.02;;
50417;SDS011;36346;48.280;14.292;2023-07-31T10:29:57;2.08;;;2.08;;
50417;SDS011;36346;48.280;14.292;2023-07-31T10:32:26;1.96;;;1.96;;
50417;SDS011;36346;48.280;14.292;2023-07-31T10:34:55;1.99;;;1.99;;
50417;SDS011;36346;48.280;14.292;2023-07-31T10:37:25;1.88;;;1.88;;
50417;SDS011;36346;48.280;14.292;2023-07-31T10:39:59;2.03;;;2.03;;
50417;SDS011;36346;48.280;14.292;2023-07-31T10:42:38;1.94;;;1.94;;
50417;SDS011;36346;48.280;14.292;2023-07-31T10:45:32;2.32;;;2.32;;
50417;SDS011;36346;48.280;14.292;2023-07-31T10:48:12;2.14;;;2.14;;
50417;SDS011;36346;48.280;14.292;2023-07-31T10:50:48;2.28;;;2.28;;
50417;SDS011;36346;48.280;14.292;2023-07-31T10:53:28;1.95;;;1.95;;
50417;SDS011;36346;48.280;14.292;2023-07-31T10:56:01;1.95;;;1.95;;
50417;SDS011;36346;48.280;14.292;2023-07-31T10:58:32;2.23;;;2.23;;
50417;SDS011;36346;48.280;14.292;2023-07-31T11:01:02;1.85;;;1.85;;
50417;SDS011;36346;48.280;14.292;2023-07-31T11:03:42;1.92;;;1.92;;
50417;SDS011;36346;48.280;14.292;2023-07-31T11:06:17;1.73;;;1.73;;
50417;SDS011;36346;48.280;14.292;2023-07-31T11:08:49;1.98;;;1.98;;
50417;SDS011;36346;48.280;14.292;2023-07-31T11:11:20;1.96;;;1.96;;
50417;SDS011;36346;48.280;14.292;2023-07-31T11:13:51;1.83;;;1.83;;
50417;SDS011;36346;48.280;14.292;2023-07-31T11:16:24;1.80;;;1.80;;
50417;SDS011;36346;48.280;14.292;2023-07-31T11:18:53;1.91;;;1.91;;
50417;SDS011;36346;48.280;14.292;2023-07-31T11:21:24;1.85;;;1.85;;
50417;SDS011;36346;48.280;14.292;2023-07-31T11:23:53;1.82;;;1.82;;
50417;SDS011;36346;48.280;14.292;2023-07-31T11:26:27;2.17;;;2.17;;
50417;SDS011;36346;48.280;14.292;2023-07-31T11:28:58;1.84;;;1.83;;
50417;SDS011;36346;48.280;14.292;2023-07-31T11:31:26;1.87;;;1.87;;
50417;SDS011;36346;48.280;14.292;2023-07-31T11:34:05;2.02;;;2.02;;
50417;SDS011;36346;48.280;14.292;2023-07-31T11:36:33;1.78;;;1.78;;
50417;SDS011;36346;48.280;14.292;2023-07-31T11:39:07;2.04;;;2.04;;
50417;SDS011;36346;48.280;14.292;2023-07-31T11:41:36;2.27;;;2.27;;
50417;SDS011;36346;48.280;14.292;2023-07-31T11:44:09;2.43;;;2.43;;
50417;SDS011;36346;48.280;14.292;2023-07-31T11:46:57;2.42;;;2.42;;
50417;SDS011;36346;48.280;14.292;2023-07-31T11:49:25;2.40;;;2.40;;
50417;SDS011;36346;48.280;14.292;2023-07-31T11:51:55;2.15;;;2.15;;
50417;SDS011;36346;48.280;14.292;2023-07-31T11:54:25;1.94;;;1.94;;
50417;SDS011;36346;48.280;14.292;2023-07-31T11:56:53;1.98;;;1.98;;
50417;SDS011;36346;48.280;14.292;2023-07-31T11:59:21;1.97;;;1.97;;
50417;SDS011;36346;48.280;14.292;2023-07-31T12:01:49;2.05;;;2.04;;
50417;SDS011;36346;48.280;14.292;2023-07-31T12:04:21;2.24;;;2.24;;
50417;SDS011;36346;48.280;14.292;2023-07-31T12:06:49;2.14;;;2.14;;
50417;SDS011;36346;48.280;14.292;2023-07-31T12:09:24;2.37;;;2.37;;
50417;SDS011;36346;48.280;14.292;2023-07-31T12:11:54;2.19;;;2.18;;
50417;SDS011;36346;48.280;14.292;2023-07-31T12:14:27;2.44;;;2.43;;
50417;SDS011;36346;48.280;14.292;2023-07-31T12:16:59;2.37;;;2.36;;
50417;SDS011;36346;48.280;14.292;2023-07-31T12:19:29;2.32;;;2.31;;
50417;SDS011;36346;48.280;14.292;2023-07-31T12:21:58;3.38;;;3.37;;
50417;SDS011;36346;48.280;14.292;2023-07-31T12:24:28;2.52;;;2.52;;
50417;SDS011;36346;48.280;14.292;2023-07-31T12:26:56;2.85;;;2.85;;
50417;SDS011;36346;48.280;14.292;2023-07-31T12:29:33;3.17;;;3.17;;
50417;SDS011;36346;48.280;14.292;2023-07-31T12:32:21;2.88;;;2.88;;
50417;SDS011;36346;48.280;14.292;2023-07-31T12:34:51;2.31;;;2.31;;
50417;SDS011;36346;48.280;14.292;2023-07-31T12:37:23;2.14;;;2.14;;
50417;SDS011;36346;48.280;14.292;2023-07-31T12:39:51;2.21;;;2.21;;
50417;SDS011;36346;48.280;14.292;2023-07-31T12:42:20;1.87;;;1.87;;
50417;SDS011;36346;48.280;14.292;2023-07-31T12:44:50;2.21;;;2.21;;
50417;SDS011;36346;48.280;14.292;2023-07-31T12:47:19;2.53;;;2.53;;
50417;SDS011;36346;48.280;14.292;2023-07-31T12:49:48;2.77;;;2.77;;
50417;SDS011;36346;48.280;14.292;2023-07-31T12:52:16;2.24;;;2.24;;
50417;SDS011;36346;48.280;14.292;2023-07-31T12:54:44;2.65;;;2.65;;
50417;SDS011;36346;48.280;14.292;2023-07-31T12:57:12;2.53;;;2.53;;
50417;SDS011;36346;48.280;14.292;2023-07-31T12:59:40;2.04;;;2.04;;
50417;SDS011;36346;48.280;14.292;2023-07-31T13:02:08;2.25;;;2.25;;
50417;SDS011;36346;48.280;14.292;2023-07-31T13:04:36;2.12;;;2.12;;
50417;SDS011;36346;48.280;14.292;2023-07-31T13:07:04;2.29;;;2.29;;
50417;SDS011;36346;48.280;14.292;2023-07-31T13:09:33;2.17;;;2.17;;
50417;SDS011;36346;48.280;14.292;2023-07-31T13:12:01;2.43;;;2.43;;
50417;SDS011;36346;48.280;14.292;2023-07-31T13:14:29;2.36;;;2.36;;
50417;SDS011;36346;48.280;14.292;2023-07-31T13:16:58;3.15;;;3.15;;
50417;SDS011;36346;48.280;14.292;2023-07-31T13:19:26;3.16;;;3.16;;
50417;SDS011;36346;48.280;14.292;2023-07-31T13:21:54;2.37;;;2.37;;
50417;SDS011;36346;48.280;14.292;2023-07-31T13:24:23;2.31;;;2.31;;
50417;SDS011;36346;48.280;14.292;2023-07-31T13:26:51;2.58;;;2.58;;
50417;SDS011;36346;48.280;14.292;2023-07-31T13:29:19;3.08;;;3.08;;
50417;SDS011;36346;48.280;14.292;2023-07-31T13:31:49;3.19;;;3.19;;
50417;SDS011;36346;48.280;14.292;2023-07-31T13:34:17;2.32;;;2.32;;
50417;SDS011;36346;48.280;14.292;2023-07-31T13:36:45;2.22;;;2.22;;
50417;SDS011;36346;48.280;14.292;2023-07-31T13:39:14;2.41;;;2.41;;
50417;SDS011;36346;48.280;14.292;2023-07-31T13:41:42;2.59;;;2.59;;
50417;SDS011;36346;48.280;14.292;2023-07-31T13:44:10;2.23;;;2.23;;
50417;SDS011;36346;48.280;14.292;2023-07-31T13:46:38;2.71;;;2.71;;
50417;SDS011;36346;48.280;14.292;2023-07-31T13:49:07;3.44;;;3.44;;
50417;SDS011;36346;48.280;14.292;2023-07-31T13:51:36;2.57;;;2.57;;
50417;SDS011;36346;48.280;14.292;2023-07-31T13:54:05;2.79;;;2.79;;
50417;SDS011;36346;48.280;14.292;2023-07-31T13:56:39;2.73;;;2.73;;
50417;SDS011;36346;48.280;14.292;2023-07-31T13:59:07;3.72;;;3.72;;
50417;SDS011;36346;48.280;14.292;2023-07-31T14:01:35;5.76;;;5.76;;
50417;SDS011;36346;48.280;14.292;2023-07-31T14:04:04;3.79;;;3.79;;
50417;SDS011;36346;48.280;14.292;2023-07-31T14:06:32;2.77;;;2.77;;
50417;SDS011;36346;48.280;14.292;2023-07-31T14:09:01;2.41;;;2.41;;
50417;SDS011;36346;48.280;14.292;2023-07-31T14:11:30;2.81;;;2.81;;
50417;SDS011;36346;48.280;14.292;2023-07-31T14:13:59;2.81;;;2.81;;
50417;SDS011;36346;48.280;14.292;2023-07-31T14:16:28;2.31;;;2.31;;
50417;SDS011;36346;48.280;14.292;2023-07-31T14:18:58;2.72;;;2.72;;
50417;SDS011;36346;48.280;14.292;2023-07-31T14:21:26;2.36;;;2.36;;
50417;SDS011;36346;48.280;14.292;2023-07-31T14:23:55;3.44;;;3.44;;
50417;SDS011;36346;48.280;14.292;2023-07-31T14:26:25;2.91;;;2.91;;
50417;SDS011;36346;48.280;14.292;2023-07-31T14:28:54;2.69;;;2.69;;
50417;SDS011;36346;48.280;14.292;2023-07-31T14:31:22;2.76;;;2.76;;
50417;SDS011;36346;48.280;14.292;2023-07-31T14:33:51;2.67;;;2.67;;
50417;SDS011;36346;48.280;14.292;2023-07-31T14:36:22;2.98;;;2.98;;
50417;SDS011;36346;48.280;14.292;2023-07-31T14:38:52;3.96;;;3.96;;
50417;SDS011;36346;48.280;14.292;2023-07-31T14:41:20;4.72;;;4.70;;
50417;SDS011;36346;48.280;14.292;2023-07-31T14:43:48;3.28;;;3.28;;
50417;SDS011;36346;48.280;14.292;2023-07-31T14:46:17;3.12;;;3.12;;
50417;SDS011;36346;48.280;14.292;2023-07-31T14:48:45;2.45;;;2.45;;
50417;SDS011;36346;48.280;14.292;2023-07-31T14:51:17;2.72;;;2.72;;
50417;SDS011;36346;48.280;14.292;2023-07-31T14:53:45;2.84;;;2.84;;
50417;SDS011;36346;48.280;14.292;2023-07-31T14:56:16;2.99;;;2.99;;
50417;SDS011;36346;48.280;14.292;2023-07-31T14:58:44;2.53;;;2.53;;